sensor_id;sensor_type;location;lat;lon;timestamp;P1;durP1;ratioP1;P2;durP2;ratioP2
5867;SDS011;2960;49.142;7.768;2023-05-10T00:02:14;10.67;;;4.73;;
5867;SDS011;2960;49.142;7.768;2023-05-10T00:04:41;10.57;;;5.00;;
5867;SDS011;2960;49.142;7.768;2023-05-10T00:07:08;10.57;;;5.00;;
5867;SDS011;2960;49.142;7.768;2023-05-10T00:09:35;10.40;;;4.57;;
5867;SDS011;2960;49.142;7.768;2023-05-10T00:12:04;10.63;;;4.87;;
5867;SDS011;2960;49.142;7.768;2023-05-10T00:14:31;10.43;;;4.60;;
5867;SDS011;2960;49.142;7.768;2023-05-10T00:16:58;10.47;;;4.80;;
5867;SDS011;2960;49.142;7.768;2023-05-10T00:19:26;10.60;;;4.90;;
5867;SDS011;2960;49.142;7.768;2023-05-10T00:21:53;10.27;;;4.60;;
5867;SDS011;2960;49.142;7.768;2023-05-10T00:24:21;10.30;;;4.70;;
5867;SDS011;2960;49.142;7.768;2023-05-10T00:26:48;10.60;;;4.90;;
5867;SDS011;2960;49.142;7.768;2023-05-10T00:29:16;10.50;;;4.70;;
5867;SDS011;2960;49.142;7.768;2023-05-10T00:31:43;10.33;;;4.63;;
5867;SDS011;2960;49.142;7.768;2023-05-10T00:34:10;10.47;;;4.70;;
5867;SDS011;2960;49.142;7.768;2023-05-10T00:36:37;10.33;;;4.67;;
5867;SDS011;2960;49.142;7.768;2023-05-10T00:39:04;10.30;;;4.63;;
5867;SDS011;2960;49.142;7.768;2023-05-10T00:41:32;10.33;;;4.60;;
5867;SDS011;2960;49.142;7.768;2023-05-10T00:43:59;10.40;;;4.80;;
5867;SDS011;2960;49.142;7.768;2023-05-10T00:46:28;10.07;;;4.40;;
5867;SDS011;2960;49.142;7.768;2023-05-10T00:48:55;10.23;;;4.50;;
5867;SDS011;2960;49.142;7.768;2023-05-10T00:51:23;10.90;;;5.23;;
5867;SDS011;2960;49.142;7.768;2023-05-10T00:53:51;10.13;;;4.47;;
5867;SDS011;2960;49.142;7.768;2023-05-10T00:56:18;10.20;;;4.53;;
5867;SDS011;2960;49.142;7.768;2023-05-10T00:58:48;10.53;;;4.50;;
5867;SDS011;2960;49.142;7.768;2023-05-10T01:01:15;10.17;;;4.40;;
5867;SDS011;2960;49.142;7.768;2023-05-10T01:03:44;10.40;;;4.57;;
5867;SDS011;2960;49.142;7.768;2023-05-10T01:06:11;10.20;;;4.47;;
5867;SDS011;2960;49.142;7.768;2023-05-10T01:08:39;10.33;;;4.60;;
5867;SDS011;2960;49.142;7.768;2023-05-10T01:11:07;10.30;;;4.40;;
5867;SDS011;2960;49.142;7.768;2023-05-10T01:13:34;10.40;;;4.80;;
5867;SDS011;2960;49.142;7.768;2023-05-10T01:16:04;10.37;;;4.70;;
5867;SDS011;2960;49.142;7.768;2023-05-10T01:18:33;10.23;;;4.40;;
5867;SDS011;2960;49.142;7.768;2023-05-10T01:21:17;10.37;;;4.60;;
5867;SDS011;2960;49.142;7.768;2023-05-10T01:27:18;10.60;;;4.73;;
5867;SDS011;2960;49.142;7.768;2023-05-10T01:30:01;10.47;;;4.60;;
5867;SDS011;2960;49.142;7.768;2023-05-10T01:32:55;10.70;;;4.80;;
5867;SDS011;2960;49.142;7.768;2023-05-10T01:35:38;10.27;;;4.40;;
5867;SDS011;2960;49.142;7.768;2023-05-10T01:38:11;10.40;;;4.53;;
5867;SDS011;2960;49.142;7.768;2023-05-10T01:40:48;10.47;;;4.80;;
5867;SDS011;2960;49.142;7.768;2023-05-10T01:43:30;10.80;;;4.67;;
5867;SDS011;2960;49.142;7.768;2023-05-10T01:46:04;10.47;;;4.70;;
5867;SDS011;2960;49.142;7.768;2023-05-10T01:48:37;10.57;;;4.60;;
5867;SDS011;2960;49.142;7.768;2023-05-10T01:51:14;10.27;;;4.50;;
5867;SDS011;2960;49.142;7.768;2023-05-10T01:53:48;10.80;;;4.70;;
5867;SDS011;2960;49.142;7.768;2023-05-10T01:56:18;10.47;;;4.83;;
5867;SDS011;2960;49.142;7.768;2023-05-10T01:58:50;10.37;;;4.57;;
5867;SDS011;2960;49.142;7.768;2023-05-10T02:01:19;10.27;;;4.40;;
5867;SDS011;2960;49.142;7.768;2023-05-10T02:03:49;10.37;;;4.70;;
5867;SDS011;2960;49.142;7.768;2023-05-10T02:06:18;10.40;;;4.60;;
5867;SDS011;2960;49.142;7.768;2023-05-10T02:08:46;10.47;;;4.60;;
5867;SDS011;2960;49.142;7.768;2023-05-10T02:11:16;10.37;;;4.60;;
5867;SDS011;2960;49.142;7.768;2023-05-10T02:13:46;10.73;;;4.87;;
5867;SDS011;2960;49.142;7.768;2023-05-10T02:16:16;11.40;;;4.63;;
5867;SDS011;2960;49.142;7.768;2023-05-10T02:18:44;10.40;;;4.47;;
5867;SDS011;2960;49.142;7.768;2023-05-10T02:21:14;10.37;;;4.50;;
5867;SDS011;2960;49.142;7.768;2023-05-10T02:23:43;10.40;;;4.50;;
5867;SDS011;2960;49.142;7.768;2023-05-10T02:26:11;10.50;;;4.53;;
5867;SDS011;2960;49.142;7.768;2023-05-10T02:28:40;10.17;;;4.40;;
5867;SDS011;2960;49.142;7.768;2023-05-10T02:31:08;10.40;;;4.73;;
5867;SDS011;2960;49.142;7.768;2023-05-10T02:33:36;10.20;;;4.40;;
5867;SDS011;2960;49.142;7.768;2023-05-10T02:36:06;10.60;;;4.67;;
5867;SDS011;2960;49.142;7.768;2023-05-10T02:38:36;10.43;;;4.80;;
5867;SDS011;2960;49.142;7.768;2023-05-10T02:41:04;10.07;;;4.20;;
5867;SDS011;2960;49.142;7.768;2023-05-10T02:43:34;10.50;;;4.73;;
5867;SDS011;2960;49.142;7.768;2023-05-10T02:46:02;10.50;;;4.87;;
5867;SDS011;2960;49.142;7.768;2023-05-10T02:48:29;10.70;;;4.70;;
5867;SDS011;2960;49.142;7.768;2023-05-10T02:50:59;11.00;;;4.90;;
5867;SDS011;2960;49.142;7.768;2023-05-10T02:53:33;10.43;;;4.50;;
5867;SDS011;2960;49.142;7.768;2023-05-10T02:56:04;10.77;;;5.00;;
5867;SDS011;2960;49.142;7.768;2023-05-10T02:58:38;10.57;;;4.70;;
5867;SDS011;2960;49.142;7.768;2023-05-10T03:01:05;10.60;;;4.67;;
5867;SDS011;2960;49.142;7.768;2023-05-10T03:03:33;10.80;;;4.60;;
5867;SDS011;2960;49.142;7.768;2023-05-10T03:06:00;10.10;;;4.23;;
5867;SDS011;2960;49.142;7.768;2023-05-10T03:08:28;13.10;;;4.70;;
5867;SDS011;2960;49.142;7.768;2023-05-10T03:11:01;10.30;;;4.50;;
5867;SDS011;2960;49.142;7.768;2023-05-10T03:13:44;10.90;;;4.77;;
5867;SDS011;2960;49.142;7.768;2023-05-10T03:16:24;10.27;;;4.60;;
5867;SDS011;2960;49.142;7.768;2023-05-10T03:18:59;10.43;;;4.60;;
5867;SDS011;2960;49.142;7.768;2023-05-10T03:21:33;10.60;;;4.60;;
5867;SDS011;2960;49.142;7.768;2023-05-10T03:24:05;10.87;;;4.90;;
5867;SDS011;2960;49.142;7.768;2023-05-10T03:26:38;10.77;;;4.90;;
5867;SDS011;2960;49.142;7.768;2023-05-10T03:29:06;11.43;;;4.60;;
5867;SDS011;2960;49.142;7.768;2023-05-10T03:31:35;10.27;;;4.50;;
5867;SDS011;2960;49.142;7.768;2023-05-10T03:34:02;10.13;;;4.30;;
5867;SDS011;2960;49.142;7.768;2023-05-10T03:36:29;10.37;;;4.50;;
5867;SDS011;2960;49.142;7.768;2023-05-10T03:38:56;10.87;;;4.67;;
5867;SDS011;2960;49.142;7.768;2023-05-10T03:41:23;10.30;;;4.20;;
5867;SDS011;2960;49.142;7.768;2023-05-10T03:43:52;10.50;;;4.50;;
5867;SDS011;2960;49.142;7.768;2023-05-10T03:46:19;10.60;;;4.70;;
5867;SDS011;2960;49.142;7.768;2023-05-10T03:48:46;10.40;;;4.53;;
5867;SDS011;2960;49.142;7.768;2023-05-10T03:51:13;10.50;;;4.40;;
5867;SDS011;2960;49.142;7.768;2023-05-10T03:53:41;10.50;;;4.40;;
5867;SDS011;2960;49.142;7.768;2023-05-10T03:56:08;10.40;;;4.37;;
5867;SDS011;2960;49.142;7.768;2023-05-10T03:58:35;10.70;;;4.57;;
5867;SDS011;2960;49.142;7.768;2023-05-10T04:01:03;10.30;;;4.27;;
5867;SDS011;2960;49.142;7.768;2023-05-10T04:03:30;10.60;;;4.30;;
5867;SDS011;2960;49.142;7.768;2023-05-10T04:05:58;10.53;;;4.20;;
5867;SDS011;2960;49.142;7.768;2023-05-10T04:08:26;10.50;;;4.10;;
5867;SDS011;2960;49.142;7.768;2023-05-10T04:10:53;10.60;;;4.07;;
5867;SDS011;2960;49.142;7.768;2023-05-10T04:13:21;10.43;;;4.30;;
5867;SDS011;2960;49.142;7.768;2023-05-10T04:15:48;10.37;;;4.23;;
5867;SDS011;2960;49.142;7.768;2023-05-10T04:18:16;10.20;;;4.10;;
5867;SDS011;2960;49.142;7.768;2023-05-10T04:20:46;10.07;;;4.10;;
5867;SDS011;2960;49.142;7.768;2023-05-10T04:23:13;10.37;;;4.17;;
5867;SDS011;2960;49.142;7.768;2023-05-10T04:25:43;10.33;;;4.07;;
5867;SDS011;2960;49.142;7.768;2023-05-10T04:28:10;9.93;;;4.10;;
5867;SDS011;2960;49.142;7.768;2023-05-10T04:30:37;10.30;;;4.30;;
5867;SDS011;2960;49.142;7.768;2023-05-10T04:33:04;10.13;;;4.20;;
5867;SDS011;2960;49.142;7.768;2023-05-10T04:35:32;10.57;;;4.40;;
5867;SDS011;2960;49.142;7.768;2023-05-10T04:38:00;10.07;;;4.00;;
5867;SDS011;2960;49.142;7.768;2023-05-10T04:40:27;11.30;;;4.87;;
5867;SDS011;2960;49.142;7.768;2023-05-10T04:42:54;10.57;;;4.43;;
5867;SDS011;2960;49.142;7.768;2023-05-10T04:45:21;10.27;;;4.13;;
5867;SDS011;2960;49.142;7.768;2023-05-10T04:47:48;10.17;;;4.00;;
5867;SDS011;2960;49.142;7.768;2023-05-10T04:50:15;10.27;;;4.10;;
5867;SDS011;2960;49.142;7.768;2023-05-10T04:52:44;10.30;;;4.30;;
5867;SDS011;2960;49.142;7.768;2023-05-10T04:55:11;10.20;;;4.20;;
5867;SDS011;2960;49.142;7.768;2023-05-10T04:57:38;10.47;;;4.20;;
5867;SDS011;2960;49.142;7.768;2023-05-10T05:00:06;10.30;;;4.10;;
5867;SDS011;2960;49.142;7.768;2023-05-10T05:02:34;10.47;;;4.53;;
5867;SDS011;2960;49.142;7.768;2023-05-10T05:05:01;10.20;;;4.13;;
5867;SDS011;2960;49.142;7.768;2023-05-10T05:07:28;10.20;;;4.23;;
5867;SDS011;2960;49.142;7.768;2023-05-10T05:09:57;10.27;;;4.03;;
5867;SDS011;2960;49.142;7.768;2023-05-10T05:12:24;10.00;;;3.93;;
5867;SDS011;2960;49.142;7.768;2023-05-10T05:14:53;10.10;;;4.00;;
5867;SDS011;2960;49.142;7.768;2023-05-10T05:17:21;10.30;;;4.20;;
5867;SDS011;2960;49.142;7.768;2023-05-10T05:19:48;9.87;;;3.80;;
5867;SDS011;2960;49.142;7.768;2023-05-10T05:22:15;10.30;;;4.33;;
5867;SDS011;2960;49.142;7.768;2023-05-10T05:24:42;10.50;;;4.30;;
5867;SDS011;2960;49.142;7.768;2023-05-10T05:27:11;10.17;;;4.47;;
5867;SDS011;2960;49.142;7.768;2023-05-10T05:29:38;10.07;;;4.30;;
5867;SDS011;2960;49.142;7.768;2023-05-10T05:32:05;10.33;;;4.27;;
5867;SDS011;2960;49.142;7.768;2023-05-10T05:34:33;10.33;;;4.47;;
5867;SDS011;2960;49.142;7.768;2023-05-10T05:37:00;10.20;;;4.10;;
5867;SDS011;2960;49.142;7.768;2023-05-10T05:39:28;10.17;;;4.20;;
5867;SDS011;2960;49.142;7.768;2023-05-10T05:41:57;10.07;;;4.13;;
5867;SDS011;2960;49.142;7.768;2023-05-10T05:44:26;10.33;;;4.10;;
5867;SDS011;2960;49.142;7.768;2023-05-10T05:46:53;9.90;;;3.87;;
5867;SDS011;2960;49.142;7.768;2023-05-10T05:49:20;10.00;;;3.90;;
5867;SDS011;2960;49.142;7.768;2023-05-10T05:51:47;10.10;;;4.10;;
5867;SDS011;2960;49.142;7.768;2023-05-10T05:54:15;10.30;;;4.13;;
5867;SDS011;2960;49.142;7.768;2023-05-10T05:56:42;10.40;;;4.50;;
5867;SDS011;2960;49.142;7.768;2023-05-10T05:59:10;10.20;;;4.20;;
5867;SDS011;2960;49.142;7.768;2023-05-10T06:01:38;10.00;;;3.93;;
5867;SDS011;2960;49.142;7.768;2023-05-10T06:04:06;10.10;;;4.13;;
5867;SDS011;2960;49.142;7.768;2023-05-10T06:06:33;10.17;;;4.00;;
5867;SDS011;2960;49.142;7.768;2023-05-10T06:09:01;9.90;;;3.90;;
5867;SDS011;2960;49.142;7.768;2023-05-10T06:11:28;10.10;;;4.40;;
5867;SDS011;2960;49.142;7.768;2023-05-10T06:13:57;10.27;;;4.40;;
5867;SDS011;2960;49.142;7.768;2023-05-10T06:16:24;11.57;;;3.90;;
5867;SDS011;2960;49.142;7.768;2023-05-10T06:18:52;10.13;;;4.37;;
5867;SDS011;2960;49.142;7.768;2023-05-10T06:21:20;10.40;;;4.30;;
5867;SDS011;2960;49.142;7.768;2023-05-10T06:23:47;10.17;;;4.40;;
5867;SDS011;2960;49.142;7.768;2023-05-10T06:26:15;10.40;;;4.20;;
5867;SDS011;2960;49.142;7.768;2023-05-10T06:28:42;10.37;;;4.30;;
5867;SDS011;2960;49.142;7.768;2023-05-10T06:31:09;10.40;;;4.20;;
5867;SDS011;2960;49.142;7.768;2023-05-10T06:33:37;9.77;;;3.80;;
5867;SDS011;2960;49.142;7.768;2023-05-10T06:36:06;10.13;;;4.30;;
5867;SDS011;2960;49.142;7.768;2023-05-10T06:38:33;10.03;;;4.30;;
5867;SDS011;2960;49.142;7.768;2023-05-10T06:41:00;10.07;;;4.30;;
5867;SDS011;2960;49.142;7.768;2023-05-10T06:43:27;10.20;;;4.10;;
5867;SDS011;2960;49.142;7.768;2023-05-10T06:45:54;10.60;;;4.20;;
5867;SDS011;2960;49.142;7.768;2023-05-10T06:48:21;10.10;;;4.00;;
5867;SDS011;2960;49.142;7.768;2023-05-10T06:50:49;10.87;;;4.40;;
5867;SDS011;2960;49.142;7.768;2023-05-10T06:53:17;11.07;;;4.60;;
5867;SDS011;2960;49.142;7.768;2023-05-10T06:55:44;10.47;;;4.20;;
5867;SDS011;2960;49.142;7.768;2023-05-10T06:58:11;10.13;;;4.13;;
5867;SDS011;2960;49.142;7.768;2023-05-10T07:00:38;9.87;;;3.93;;
5867;SDS011;2960;49.142;7.768;2023-05-10T07:03:08;10.17;;;4.50;;
5867;SDS011;2960;49.142;7.768;2023-05-10T07:05:35;10.73;;;4.90;;
5867;SDS011;2960;49.142;7.768;2023-05-10T07:08:03;10.20;;;4.37;;
5867;SDS011;2960;49.142;7.768;2023-05-10T07:10:31;11.10;;;4.77;;
5867;SDS011;2960;49.142;7.768;2023-05-10T07:12:59;10.07;;;4.30;;
5867;SDS011;2960;49.142;7.768;2023-05-10T07:15:26;10.53;;;4.50;;
5867;SDS011;2960;49.142;7.768;2023-05-10T07:17:53;10.40;;;4.40;;
5867;SDS011;2960;49.142;7.768;2023-05-10T07:20:20;10.27;;;4.50;;
5867;SDS011;2960;49.142;7.768;2023-05-10T07:22:47;11.80;;;4.47;;
5867;SDS011;2960;49.142;7.768;2023-05-10T07:25:14;10.03;;;4.00;;
5867;SDS011;2960;49.142;7.768;2023-05-10T07:27:43;10.47;;;3.90;;
5867;SDS011;2960;49.142;7.768;2023-05-10T07:30:13;10.03;;;4.07;;
5867;SDS011;2960;49.142;7.768;2023-05-10T07:32:41;10.50;;;4.40;;
5867;SDS011;2960;49.142;7.768;2023-05-10T07:35:08;10.50;;;4.87;;
5867;SDS011;2960;49.142;7.768;2023-05-10T07:37:35;10.67;;;5.00;;
5867;SDS011;2960;49.142;7.768;2023-05-10T07:40:02;10.27;;;4.50;;
5867;SDS011;2960;49.142;7.768;2023-05-10T07:42:31;10.60;;;4.47;;
5867;SDS011;2960;49.142;7.768;2023-05-10T07:45:00;11.53;;;5.00;;
5867;SDS011;2960;49.142;7.768;2023-05-10T07:47:28;10.30;;;4.47;;
5867;SDS011;2960;49.142;7.768;2023-05-10T07:49:55;10.37;;;4.30;;
5867;SDS011;2960;49.142;7.768;2023-05-10T07:52:22;10.70;;;4.37;;
5867;SDS011;2960;49.142;7.768;2023-05-10T07:54:49;10.50;;;4.20;;
5867;SDS011;2960;49.142;7.768;2023-05-10T07:57:17;10.50;;;4.57;;
5867;SDS011;2960;49.142;7.768;2023-05-10T07:59:44;10.00;;;4.03;;
5867;SDS011;2960;49.142;7.768;2023-05-10T08:02:13;10.13;;;4.30;;
5867;SDS011;2960;49.142;7.768;2023-05-10T08:04:40;10.50;;;4.30;;
5867;SDS011;2960;49.142;7.768;2023-05-10T08:07:07;10.87;;;4.70;;
5867;SDS011;2960;49.142;7.768;2023-05-10T08:09:34;10.50;;;4.70;;
5867;SDS011;2960;49.142;7.768;2023-05-10T08:12:02;10.60;;;4.70;;
5867;SDS011;2960;49.142;7.768;2023-05-10T08:14:29;10.53;;;4.80;;
5867;SDS011;2960;49.142;7.768;2023-05-10T08:16:57;10.80;;;4.90;;
5867;SDS011;2960;49.142;7.768;2023-05-10T08:19:25;10.70;;;4.70;;
5867;SDS011;2960;49.142;7.768;2023-05-10T08:21:52;11.10;;;4.80;;
5867;SDS011;2960;49.142;7.768;2023-05-10T08:24:20;10.83;;;5.10;;
5867;SDS011;2960;49.142;7.768;2023-05-10T08:26:47;11.20;;;4.60;;
5867;SDS011;2960;49.142;7.768;2023-05-10T08:29:14;11.23;;;4.47;;
5867;SDS011;2960;49.142;7.768;2023-05-10T08:31:42;11.00;;;4.60;;
5867;SDS011;2960;49.142;7.768;2023-05-10T08:34:10;11.30;;;4.70;;
5867;SDS011;2960;49.142;7.768;2023-05-10T08:36:38;10.73;;;4.43;;
5867;SDS011;2960;49.142;7.768;2023-05-10T08:39:05;11.97;;;4.60;;
5867;SDS011;2960;49.142;7.768;2023-05-10T08:41:33;10.50;;;4.57;;
5867;SDS011;2960;49.142;7.768;2023-05-10T08:44:02;10.77;;;4.80;;
5867;SDS011;2960;49.142;7.768;2023-05-10T08:46:31;11.27;;;4.90;;
5867;SDS011;2960;49.142;7.768;2023-05-10T08:49:03;11.63;;;5.33;;
5867;SDS011;2960;49.142;7.768;2023-05-10T08:51:35;10.77;;;5.20;;
5867;SDS011;2960;49.142;7.768;2023-05-10T08:54:07;10.90;;;5.33;;
5867;SDS011;2960;49.142;7.768;2023-05-10T08:56:37;10.50;;;4.60;;
5867;SDS011;2960;49.142;7.768;2023-05-10T08:59:04;10.37;;;4.47;;
5867;SDS011;2960;49.142;7.768;2023-05-10T09:01:32;10.20;;;4.50;;
5867;SDS011;2960;49.142;7.768;2023-05-10T09:04:01;11.10;;;4.87;;
5867;SDS011;2960;49.142;7.768;2023-05-10T09:06:29;10.30;;;4.40;;
5867;SDS011;2960;49.142;7.768;2023-05-10T09:08:58;10.70;;;4.70;;
5867;SDS011;2960;49.142;7.768;2023-05-10T09:11:26;10.40;;;4.67;;
5867;SDS011;2960;49.142;7.768;2023-05-10T09:13:55;11.20;;;4.50;;
5867;SDS011;2960;49.142;7.768;2023-05-10T09:16:22;10.10;;;4.23;;
5867;SDS011;2960;49.142;7.768;2023-05-10T09:18:50;10.53;;;4.60;;
5867;SDS011;2960;49.142;7.768;2023-05-10T09:21:18;10.73;;;4.50;;
5867;SDS011;2960;49.142;7.768;2023-05-10T09:23:48;10.23;;;4.40;;
5867;SDS011;2960;49.142;7.768;2023-05-10T09:26:17;10.43;;;4.50;;
5867;SDS011;2960;49.142;7.768;2023-05-10T09:28:50;10.70;;;4.60;;
5867;SDS011;2960;49.142;7.768;2023-05-10T09:31:18;10.43;;;4.70;;
5867;SDS011;2960;49.142;7.768;2023-05-10T09:33:46;10.90;;;4.90;;
5867;SDS011;2960;49.142;7.768;2023-05-10T09:36:15;10.50;;;4.80;;
5867;SDS011;2960;49.142;7.768;2023-05-10T09:38:45;11.30;;;4.90;;
5867;SDS011;2960;49.142;7.768;2023-05-10T09:41:18;10.53;;;4.70;;
5867;SDS011;2960;49.142;7.768;2023-05-10T09:43:47;10.33;;;4.40;;
5867;SDS011;2960;49.142;7.768;2023-05-10T09:46:15;10.47;;;4.60;;
5867;SDS011;2960;49.142;7.768;2023-05-10T09:48:43;10.50;;;4.90;;
5867;SDS011;2960;49.142;7.768;2023-05-10T09:51:18;10.60;;;4.93;;
5867;SDS011;2960;49.142;7.768;2023-05-10T09:53:46;10.43;;;4.70;;
5867;SDS011;2960;49.142;7.768;2023-05-10T09:56:19;10.97;;;4.40;;
5867;SDS011;2960;49.142;7.768;2023-05-10T09:59:03;10.70;;;4.33;;
5867;SDS011;2960;49.142;7.768;2023-05-10T10:01:30;10.13;;;4.20;;
5867;SDS011;2960;49.142;7.768;2023-05-10T10:03:57;12.00;;;5.07;;
5867;SDS011;2960;49.142;7.768;2023-05-10T10:06:25;12.33;;;6.03;;
5867;SDS011;2960;49.142;7.768;2023-05-10T10:08:53;11.97;;;6.03;;
5867;SDS011;2960;49.142;7.768;2023-05-10T10:11:22;11.97;;;6.33;;
5867;SDS011;2960;49.142;7.768;2023-05-10T10:13:50;11.93;;;5.93;;
5867;SDS011;2960;49.142;7.768;2023-05-10T10:16:18;11.70;;;5.90;;
5867;SDS011;2960;49.142;7.768;2023-05-10T10:18:47;12.20;;;5.80;;
5867;SDS011;2960;49.142;7.768;2023-05-10T10:21:14;11.37;;;5.67;;
5867;SDS011;2960;49.142;7.768;2023-05-10T10:23:42;10.93;;;5.60;;
5867;SDS011;2960;49.142;7.768;2023-05-10T10:26:09;11.10;;;5.27;;
5867;SDS011;2960;49.142;7.768;2023-05-10T10:28:39;11.20;;;5.20;;
5867;SDS011;2960;49.142;7.768;2023-05-10T10:31:21;10.90;;;5.37;;
5867;SDS011;2960;49.142;7.768;2023-05-10T10:34:00;13.30;;;5.10;;
5867;SDS011;2960;49.142;7.768;2023-05-10T10:36:32;10.77;;;4.93;;
5867;SDS011;2960;49.142;7.768;2023-05-10T10:39:08;10.80;;;5.13;;
5867;SDS011;2960;49.142;7.768;2023-05-10T10:41:37;20.53;;;5.10;;
5867;SDS011;2960;49.142;7.768;2023-05-10T10:44:26;11.90;;;5.07;;
5867;SDS011;2960;49.142;7.768;2023-05-10T10:47:07;11.63;;;5.10;;
5867;SDS011;2960;49.142;7.768;2023-05-10T10:50:01;11.17;;;5.00;;
5867;SDS011;2960;49.142;7.768;2023-05-10T10:52:31;11.10;;;5.50;;
5867;SDS011;2960;49.142;7.768;2023-05-10T10:55:00;12.80;;;5.93;;
5867;SDS011;2960;49.142;7.768;2023-05-10T10:57:31;13.60;;;6.57;;
5867;SDS011;2960;49.142;7.768;2023-05-10T11:02:57;11.80;;;5.30;;
5867;SDS011;2960;49.142;7.768;2023-05-10T11:05:33;11.50;;;5.27;;
5867;SDS011;2960;49.142;7.768;2023-05-10T11:08:07;11.13;;;5.43;;
5867;SDS011;2960;49.142;7.768;2023-05-10T11:10:40;11.50;;;5.20;;
5867;SDS011;2960;49.142;7.768;2023-05-10T11:13:34;11.07;;;5.13;;
5867;SDS011;2960;49.142;7.768;2023-05-10T11:16:13;10.70;;;5.00;;
5867;SDS011;2960;49.142;7.768;2023-05-10T11:18:52;10.70;;;5.00;;
5867;SDS011;2960;49.142;7.768;2023-05-10T11:21:26;11.50;;;5.37;;
5867;SDS011;2960;49.142;7.768;2023-05-10T11:23:54;10.80;;;4.83;;
5867;SDS011;2960;49.142;7.768;2023-05-10T11:26:23;10.67;;;4.90;;
5867;SDS011;2960;49.142;7.768;2023-05-10T11:28:51;11.13;;;5.07;;
5867;SDS011;2960;49.142;7.768;2023-05-10T11:31:22;10.53;;;4.97;;
5867;SDS011;2960;49.142;7.768;2023-05-10T11:33:52;12.23;;;4.90;;
5867;SDS011;2960;49.142;7.768;2023-05-10T11:36:21;10.90;;;5.03;;
5867;SDS011;2960;49.142;7.768;2023-05-10T11:38:52;10.47;;;4.93;;
5867;SDS011;2960;49.142;7.768;2023-05-10T11:41:20;10.60;;;5.07;;
5867;SDS011;2960;49.142;7.768;2023-05-10T11:43:49;10.73;;;5.27;;
5867;SDS011;2960;49.142;7.768;2023-05-10T11:46:20;11.00;;;5.00;;
5867;SDS011;2960;49.142;7.768;2023-05-10T11:48:52;10.67;;;5.17;;
5867;SDS011;2960;49.142;7.768;2023-05-10T11:51:22;11.60;;;5.77;;
5867;SDS011;2960;49.142;7.768;2023-05-10T11:53:50;10.77;;;5.20;;
5867;SDS011;2960;49.142;7.768;2023-05-10T11:56:19;11.10;;;5.40;;
5867;SDS011;2960;49.142;7.768;2023-05-10T11:58:52;11.00;;;5.40;;
5867;SDS011;2960;49.142;7.768;2023-05-10T12:01:20;10.77;;;5.30;;
5867;SDS011;2960;49.142;7.768;2023-05-10T12:03:53;10.93;;;5.00;;
5867;SDS011;2960;49.142;7.768;2023-05-10T12:06:25;13.67;;;5.67;;
5867;SDS011;2960;49.142;7.768;2023-05-10T12:08:54;11.00;;;5.53;;
5867;SDS011;2960;49.142;7.768;2023-05-10T12:11:24;15.00;;;5.30;;
5867;SDS011;2960;49.142;7.768;2023-05-10T12:13:52;10.67;;;4.90;;
5867;SDS011;2960;49.142;7.768;2023-05-10T12:16:20;10.67;;;4.90;;
5867;SDS011;2960;49.142;7.768;2023-05-10T12:18:51;10.47;;;4.87;;
5867;SDS011;2960;49.142;7.768;2023-05-10T12:21:19;10.73;;;5.00;;
5867;SDS011;2960;49.142;7.768;2023-05-10T12:26:16;10.60;;;4.70;;
5867;SDS011;2960;49.142;7.768;2023-05-10T12:28:44;10.43;;;4.90;;
5867;SDS011;2960;49.142;7.768;2023-05-10T12:31:11;10.60;;;4.90;;
5867;SDS011;2960;49.142;7.768;2023-05-10T12:33:40;10.63;;;4.97;;
5867;SDS011;2960;49.142;7.768;2023-05-10T12:36:09;13.90;;;4.83;;
5867;SDS011;2960;49.142;7.768;2023-05-10T12:38:39;10.73;;;4.77;;
5867;SDS011;2960;49.142;7.768;2023-05-10T12:41:09;10.80;;;5.10;;
5867;SDS011;2960;49.142;7.768;2023-05-10T12:43:38;11.30;;;5.40;;
5867;SDS011;2960;49.142;7.768;2023-05-10T12:46:06;11.63;;;4.40;;
5867;SDS011;2960;49.142;7.768;2023-05-10T12:48:36;10.43;;;4.67;;
5867;SDS011;2960;49.142;7.768;2023-05-10T12:51:07;10.90;;;5.00;;
5867;SDS011;2960;49.142;7.768;2023-05-10T12:53:37;10.43;;;4.70;;
5867;SDS011;2960;49.142;7.768;2023-05-10T12:56:04;10.40;;;4.47;;
5867;SDS011;2960;49.142;7.768;2023-05-10T12:58:32;11.37;;;4.93;;
5867;SDS011;2960;49.142;7.768;2023-05-10T13:01:00;10.60;;;5.13;;
5867;SDS011;2960;49.142;7.768;2023-05-10T13:03:28;10.57;;;4.97;;
5867;SDS011;2960;49.142;7.768;2023-05-10T13:05:56;11.27;;;5.10;;
5867;SDS011;2960;49.142;7.768;2023-05-10T13:08:23;11.67;;;5.03;;
5867;SDS011;2960;49.142;7.768;2023-05-10T13:10:50;10.60;;;4.80;;
5867;SDS011;2960;49.142;7.768;2023-05-10T13:13:18;11.00;;;5.00;;
5867;SDS011;2960;49.142;7.768;2023-05-10T13:15:45;12.27;;;5.17;;
5867;SDS011;2960;49.142;7.768;2023-05-10T13:18:12;10.73;;;5.10;;
5867;SDS011;2960;49.142;7.768;2023-05-10T13:20:39;10.53;;;4.93;;
5867;SDS011;2960;49.142;7.768;2023-05-10T13:23:09;10.60;;;5.20;;
5867;SDS011;2960;49.142;7.768;2023-05-10T13:25:37;10.47;;;4.70;;
5867;SDS011;2960;49.142;7.768;2023-05-10T13:28:05;10.57;;;4.83;;
5867;SDS011;2960;49.142;7.768;2023-05-10T13:30:32;10.53;;;4.80;;
5867;SDS011;2960;49.142;7.768;2023-05-10T13:32:59;10.93;;;5.50;;
5867;SDS011;2960;49.142;7.768;2023-05-10T13:35:28;10.87;;;5.10;;
5867;SDS011;2960;49.142;7.768;2023-05-10T13:37:55;10.60;;;5.10;;
5867;SDS011;2960;49.142;7.768;2023-05-10T13:40:24;10.70;;;4.97;;
5867;SDS011;2960;49.142;7.768;2023-05-10T13:42:51;10.27;;;4.50;;
5867;SDS011;2960;49.142;7.768;2023-05-10T13:45:18;10.27;;;4.40;;
5867;SDS011;2960;49.142;7.768;2023-05-10T13:47:46;12.50;;;4.70;;
5867;SDS011;2960;49.142;7.768;2023-05-10T13:50:13;10.90;;;5.03;;
5867;SDS011;2960;49.142;7.768;2023-05-10T13:52:40;10.53;;;4.80;;
5867;SDS011;2960;49.142;7.768;2023-05-10T13:55:07;10.90;;;4.83;;
5867;SDS011;2960;49.142;7.768;2023-05-10T13:57:38;11.07;;;4.83;;
5867;SDS011;2960;49.142;7.768;2023-05-10T14:00:06;11.27;;;5.13;;
5867;SDS011;2960;49.142;7.768;2023-05-10T14:02:35;10.80;;;5.10;;
5867;SDS011;2960;49.142;7.768;2023-05-10T14:05:02;13.93;;;4.77;;
5867;SDS011;2960;49.142;7.768;2023-05-10T14:07:30;11.07;;;5.03;;
5867;SDS011;2960;49.142;7.768;2023-05-10T14:10:00;10.60;;;5.00;;
5867;SDS011;2960;49.142;7.768;2023-05-10T14:12:27;10.50;;;4.60;;
5867;SDS011;2960;49.142;7.768;2023-05-10T14:14:55;11.30;;;5.50;;
5867;SDS011;2960;49.142;7.768;2023-05-10T14:17:23;12.13;;;4.87;;
5867;SDS011;2960;49.142;7.768;2023-05-10T14:19:53;10.53;;;4.70;;
5867;SDS011;2960;49.142;7.768;2023-05-10T14:22:23;10.70;;;4.83;;
5867;SDS011;2960;49.142;7.768;2023-05-10T14:24:50;10.80;;;5.10;;
5867;SDS011;2960;49.142;7.768;2023-05-10T14:27:17;10.57;;;4.83;;
5867;SDS011;2960;49.142;7.768;2023-05-10T14:29:44;11.10;;;5.10;;
5867;SDS011;2960;49.142;7.768;2023-05-10T14:32:13;10.40;;;4.57;;
5867;SDS011;2960;49.142;7.768;2023-05-10T14:34:40;10.73;;;5.03;;
5867;SDS011;2960;49.142;7.768;2023-05-10T14:37:09;11.27;;;4.83;;
5867;SDS011;2960;49.142;7.768;2023-05-10T14:39:37;10.57;;;4.97;;
5867;SDS011;2960;49.142;7.768;2023-05-10T14:42:04;10.50;;;4.67;;
5867;SDS011;2960;49.142;7.768;2023-05-10T14:44:31;10.50;;;4.63;;
5867;SDS011;2960;49.142;7.768;2023-05-10T14:47:00;10.33;;;4.50;;
5867;SDS011;2960;49.142;7.768;2023-05-10T14:49:29;10.50;;;4.80;;
5867;SDS011;2960;49.142;7.768;2023-05-10T14:51:56;10.53;;;4.80;;
5867;SDS011;2960;49.142;7.768;2023-05-10T14:54:23;10.47;;;4.70;;
5867;SDS011;2960;49.142;7.768;2023-05-10T14:56:50;11.10;;;5.03;;
5867;SDS011;2960;49.142;7.768;2023-05-10T14:59:18;15.83;;;4.90;;
5867;SDS011;2960;49.142;7.768;2023-05-10T15:01:46;10.43;;;4.50;;
5867;SDS011;2960;49.142;7.768;2023-05-10T15:04:13;10.53;;;4.87;;
5867;SDS011;2960;49.142;7.768;2023-05-10T15:06:42;10.70;;;4.90;;
5867;SDS011;2960;49.142;7.768;2023-05-10T15:09:10;10.63;;;5.20;;
5867;SDS011;2960;49.142;7.768;2023-05-10T15:11:40;10.53;;;5.00;;
5867;SDS011;2960;49.142;7.768;2023-05-10T15:14:08;10.30;;;4.47;;
5867;SDS011;2960;49.142;7.768;2023-05-10T15:16:35;10.40;;;4.67;;
5867;SDS011;2960;49.142;7.768;2023-05-10T15:19:02;11.37;;;5.20;;
5867;SDS011;2960;49.142;7.768;2023-05-10T15:21:30;10.80;;;5.20;;
5867;SDS011;2960;49.142;7.768;2023-05-10T15:24:05;10.50;;;4.80;;